Time;durP1;ratioP1;P1;durP2;ratioP2;P2;SDS_P1;SDS_P2;PMS_P1;PMS_P2;Temp;Humidity;BMP_temperature;BMP_pressure;BME280_temperature;BME280_humidity;BME280_pressure;Samples;Min_cycle;Max_cycle;Signal;HPM_P1;HPM_P2
2021/04/07 00:01:24;;;;;;;6.47;4.35;;;;;;;6.52;78.20;97775.53;1806384;79;21048;-65
2021/04/07 00:03:52;;;;;;;7.72;5.05;;;;;;;6.32;78.64;97774.43;1822109;78;21578;-65
2021/04/07 00:06:19;;;;;;;6.92;5.28;;;;;;;6.19;79.02;97769.53;1822213;78;21484;-65
2021/04/07 00:08:49;;;;;;;6.00;4.87;;;;;;;6.08;79.23;97774.38;1806366;79;21088;-65
2021/04/07 00:11:17;;;;;;;4.60;3.98;;;;;;;6.00;79.71;97772.62;1822069;78;21788;-65
2021/04/07 00:13:46;;;;;;;4.60;3.92;;;;;;;5.92;79.47;97771.73;1806343;79;20921;-65
2021/04/07 00:16:13;;;;;;;4.92;4.10;;;;;;;5.80;79.65;97773.58;1792154;78;21559;-65
2021/04/07 00:18:42;;;;;;;6.00;4.62;;;;;;;5.67;80.07;97766.91;1806414;79;21124;-65
2021/04/07 00:21:09;;;;;;;5.58;4.65;;;;;;;5.60;80.35;97765.52;1822139;78;21437;-65
2021/04/07 00:23:37;;;;;;;5.60;4.45;;;;;;;5.52;80.33;97774.11;1806307;79;21504;-65
2021/04/07 00:26:04;;;;;;;4.95;4.15;;;;;;;5.48;80.59;97771.28;1822257;78;21460;-65
2021/04/07 00:28:33;;;;;;;5.60;4.40;;;;;;;5.43;80.74;97770.21;1806490;79;21591;-65
2021/04/07 00:31:00;;;;;;;4.83;4.08;;;;;;;5.38;80.82;97769.63;1822143;78;21523;-65
2021/04/07 00:33:28;;;;;;;4.85;4.35;;;;;;;5.37;80.96;97767.11;1823577;78;22289;-65
2021/04/07 00:35:55;;;;;;;6.05;4.80;;;;;;;5.35;81.08;97761.19;1812281;79;21060;-65
2021/04/07 00:38:24;;;;;;;5.42;3.98;;;;;;;5.29;81.17;97760.18;1825302;78;21107;-64
2021/04/07 00:40:51;;;;;;;5.60;4.58;;;;;;;5.23;81.42;97766.91;1812333;79;21543;-65
2021/04/07 00:43:19;;;;;;;5.08;4.58;;;;;;;5.20;81.92;97770.00;1825321;78;21487;-65
2021/04/07 00:45:47;;;;;;;4.85;4.35;;;;;;;5.23;81.95;97769.03;1812337;78;21356;-65
2021/04/07 00:51:26;;;;;;;6.12;4.92;;;;;;;5.30;81.63;97764.43;1851526;77;25857;-66
2021/04/07 00:53:54;;;;;;;6.42;5.35;;;;;;;5.26;81.30;97764.19;1783193;78;21135;-67
2021/04/07 00:56:22;;;;;;;8.15;5.45;;;;;;;5.19;81.16;97761.09;1798506;79;21139;-66
2021/04/07 00:58:49;;;;;;;6.10;5.47;;;;;;;5.14;81.29;97756.14;1729266;81;21084;-66
2021/04/07 01:01:16;;;;;;;6.55;5.75;;;;;;;5.10;81.22;97752.48;1727899;82;21138;-66
2021/04/07 01:03:45;;;;;;;5.92;5.17;;;;;;;5.03;81.37;97750.63;1720865;82;21143;-66
2021/04/07 01:06:12;;;;;;;6.08;5.00;;;;;;;4.99;81.39;97751.70;1795262;79;21166;-67
2021/04/07 01:08:42;;;;;;;6.03;5.30;;;;;;;4.97;81.50;97752.23;1796049;79;21131;-66
2021/04/07 01:11:10;;;;;;;6.87;4.87;;;;;;;4.96;81.58;97747.98;1796363;79;21183;-67
2021/04/07 01:13:39;;;;;;;6.17;5.58;;;;;;;4.96;81.71;97749.27;1795693;79;21065;-66
2021/04/07 01:16:07;;;;;;;5.53;5.03;;;;;;;5.00;81.73;97743.50;1803752;79;21135;-66
2021/04/07 01:18:34;;;;;;;5.00;4.50;;;;;;;5.00;81.75;97737.89;1741069;81;21224;-67
2021/04/07 01:21:03;;;;;;;6.45;5.78;;;;;;;5.00;81.82;97741.75;1759792;81;21622;-67
2021/04/07 01:23:31;;;;;;;6.17;4.72;;;;;;;5.02;81.80;97744.27;1757337;81;21093;-67
2021/04/07 01:25:59;;;;;;;7.22;4.97;;;;;;;5.02;81.71;97750.25;1723055;81;21064;-67
2021/04/07 01:28:28;;;;;;;7.42;5.45;;;;;;;5.03;81.42;97744.64;1797991;79;21490;-67
2021/04/07 01:30:55;;;;;;;5.78;5.05;;;;;;;5.03;81.40;97737.75;1798506;79;21539;-67
2021/04/07 01:35:40;;;;;;;5.47;4.65;;;;;;;5.11;81.20;97739.53;1833205;77;26823;-66
2021/04/07 01:38:08;;;;;;;5.40;4.20;;;;;;;5.06;81.17;97738.90;1737790;81;21622;-66
2021/04/07 01:40:35;;;;;;;5.60;4.70;;;;;;;5.03;80.88;97735.63;1722288;82;23594;-67
2021/04/07 01:43:02;;;;;;;7.37;5.08;;;;;;;4.98;80.95;97723.44;1718251;82;21623;-67
2021/04/07 01:45:30;;;;;;;6.22;5.05;;;;;;;4.92;81.25;97710.38;1718243;82;21560;-67
2021/04/07 01:47:58;;;;;;;5.22;3.92;;;;;;;4.89;81.31;97706.66;1773167;79;21101;-66
2021/04/07 01:50:25;;;;;;;4.90;3.65;;;;;;;4.86;81.04;97704.22;1804614;79;21060;-66
2021/04/07 01:52:53;;;;;;;5.90;3.58;;;;;;;4.87;80.71;97702.48;1742742;81;21392;-66
2021/04/07 01:55:22;;;;;;;4.78;3.67;;;;;;;4.84;80.37;97691.41;1785361;79;21084;-66
2021/04/07 01:57:50;;;;;;;5.15;3.35;;;;;;;4.81;80.43;97692.83;1738484;82;21128;-66
2021/04/07 02:00:18;;;;;;;9.50;5.97;;;;;;;4.81;80.34;97687.68;1752625;80;21051;-66
2021/04/07 02:02:45;;;;;;;6.08;4.05;;;;;;;4.82;80.58;97675.64;1773006;79;21470;-67
2021/04/07 02:05:15;;;;;;;5.05;3.72;;;;;;;4.82;80.47;97685.48;1804296;79;21358;-66
2021/04/07 02:07:44;;;;;;;5.25;3.25;;;;;;;4.80;80.45;97686.46;1737483;82;21515;-66
2021/04/07 02:10:14;;;;;;;4.35;3.22;;;;;;;4.78;80.28;97680.58;1752299;80;21068;-66
2021/04/07 02:12:41;;;;;;;5.03;3.33;;;;;;;4.76;80.37;97688.82;1754873;80;21135;-66
2021/04/07 02:15:15;;;;;;;5.55;3.72;;;;;;;4.75;80.41;97696.17;1766654;80;21108;-66
2021/04/07 02:17:52;;;;;;;4.42;2.75;;;;;;;4.74;80.06;97715.09;1890119;76;22651;-66
2021/04/07 02:20:20;;;;;;;3.22;2.50;;;;;;;4.63;80.14;97716.86;1861018;77;20946;-67
2021/04/07 02:22:51;;;;;;;3.52;2.05;;;;;;;4.57;80.12;97722.31;1861080;77;21461;-66
2021/04/07 02:25:19;;;;;;;5.03;3.00;;;;;;;4.54;80.47;97731.45;1860948;77;20930;-66
2021/04/07 02:27:46;;;;;;;6.22;2.95;;;;;;;4.52;80.77;97725.53;1860973;77;20961;-67
2021/04/07 02:30:16;;;;;;;4.08;2.35;;;;;;;4.49;80.74;97729.08;1860927;77;21004;-66
2021/04/07 02:32:43;;;;;;;3.22;2.10;;;;;;;4.47;80.79;97736.03;1860999;77;20980;-66
2021/04/07 02:35:11;;;;;;;2.85;2.35;;;;;;;4.42;80.67;97757.72;1827260;78;21370;-66
2021/04/07 02:37:39;;;;;;;9.63;5.55;;;;;;;4.37;81.00;97749.39;1827163;78;21491;-66
2021/04/07 02:40:08;;;;;;;8.65;4.58;;;;;;;4.36;81.29;97757.56;1827215;78;21061;-66
2021/04/07 02:42:36;;;;;;;9.25;5.00;;;;;;;4.38;81.25;97769.91;1827185;78;21151;-66
2021/04/07 02:45:07;;;;;;;5.90;3.67;;;;;;;4.38;81.18;97769.91;1827216;78;21107;-66
2021/04/07 02:47:35;;;;;;;6.60;4.55;;;;;;;4.35;80.88;97765.34;1827205;78;21363;-66
2021/04/07 02:50:04;;;;;;;6.53;4.20;;;;;;;4.28;80.86;97769.91;1827127;78;21127;-66
2021/04/07 02:52:32;;;;;;;3.55;2.62;;;;;;;4.23;81.08;97776.16;1827290;78;21580;-66
2021/04/07 02:55:00;;;;;;;3.72;2.50;;;;;;;4.18;80.95;97777.66;1827157;78;21048;-66
2021/04/07 02:57:27;;;;;;;1.75;1.05;;;;;;;4.12;80.80;97792.06;1827282;78;21033;-66
2021/04/07 02:59:55;;;;;;;1.25;1.10;;;;;;;4.04;80.68;97788.96;1827199;78;21442;-66
2021/04/07 03:02:23;;;;;;;2.35;1.10;;;;;;;3.98;80.61;97791.81;1827146;78;21135;-66
2021/04/07 03:04:50;;;;;;;2.47;1.40;;;;;;;3.93;80.50;97782.16;1827197;78;21073;-66
2021/04/07 03:07:18;;;;;;;1.85;1.17;;;;;;;3.89;80.65;97778.88;1827196;78;21512;-66
2021/04/07 03:09:46;;;;;;;1.67;1.30;;;;;;;3.87;80.59;97777.26;1827179;78;21607;-66
2021/04/07 03:12:14;;;;;;;2.35;0.90;;;;;;;3.85;80.84;97774.75;1827190;78;22370;-66
2021/04/07 03:14:41;;;;;;;1.40;1.12;;;;;;;3.81;80.87;97771.46;1827127;78;21544;-65
2021/04/07 03:17:12;;;;;;;5.85;1.25;;;;;;;3.76;81.35;97775.14;1828903;78;21476;-65
2021/04/07 03:19:39;;;;;;;3.95;1.52;;;;;;;3.70;81.83;97773.66;1830410;78;21060;-65
2021/04/07 03:22:07;;;;;;;2.37;1.32;;;;;;;3.65;82.17;97776.02;1830384;78;21036;-65
2021/04/07 03:24:35;;;;;;;1.50;1.20;;;;;;;3.58;82.30;97768.19;1830399;78;21192;-65
2021/04/07 03:27:03;;;;;;;0.80;0.80;;;;;;;3.51;82.42;97784.73;1830273;78;21159;-65
2021/04/07 03:29:30;;;;;;;0.82;0.82;;;;;;;3.41;82.39;97788.95;1829770;78;21495;-65
2021/04/07 03:31:58;;;;;;;0.98;0.98;;;;;;;3.32;82.30;97785.92;1829801;78;21508;-65
2021/04/07 03:34:26;;;;;;;1.30;1.20;;;;;;;3.21;82.56;97794.03;1829746;78;21638;-65
2021/04/07 03:36:53;;;;;;;1.20;1.10;;;;;;;3.12;82.97;97790.55;1829795;78;21182;-66
2021/04/07 03:39:21;;;;;;;1.72;1.50;;;;;;;3.08;83.40;97792.39;1829748;78;21088;-66
2021/04/07 03:41:50;;;;;;;1.67;1.30;;;;;;;3.07;83.69;97797.58;1829797;78;21040;-66
2021/04/07 03:44:21;;;;;;;2.20;1.50;;;;;;;3.10;83.77;97803.89;1829793;78;21072;-66
2021/04/07 03:46:55;;;;;;;2.08;1.77;;;;;;;3.10;83.59;97809.03;1829906;78;21480;-67
2021/04/07 03:49:23;;;;;;;2.77;1.77;;;;;;;3.09;83.59;97812.05;1829768;78;21369;-66
2021/04/07 03:51:51;;;;;;;2.60;1.82;;;;;;;3.07;83.69;97808.69;1829724;78;21056;-66
2021/04/07 03:54:18;;;;;;;2.35;1.72;;;;;;;3.07;83.46;97803.55;1829758;78;21044;-66
2021/04/07 03:56:46;;;;;;;2.20;1.10;;;;;;;3.08;83.79;97806.96;1829729;78;21112;-66
2021/04/07 03:59:14;;;;;;;1.20;1.10;;;;;;;3.09;83.49;97824.05;1829792;78;21548;-66
2021/04/07 04:01:42;;;;;;;1.57;1.45;;;;;;;3.11;83.46;97823.55;1829802;78;22323;-66
2021/04/07 04:04:10;;;;;;;1.35;1.25;;;;;;;3.09;83.26;97824.89;1829798;78;21468;-66
2021/04/07 04:06:43;;;;;;;1.22;1.12;;;;;;;3.08;83.30;97821.09;1829794;78;21041;-67
2021/04/07 04:09:09;;;;;;;1.67;0.90;;;;;;;3.08;83.36;97826.22;1829710;78;21067;-65
2021/04/07 04:11:37;;;;;;;1.12;1.00;;;;;;;3.07;83.34;97824.10;1829751;78;21053;-66
2021/04/07 04:14:06;;;;;;;1.32;1.00;;;;;;;3.04;83.06;97830.63;1829729;78;21147;-65
2021/04/07 04:16:34;;;;;;;1.32;1.07;;;;;;;3.02;82.97;97834.98;1828816;77;21151;-65
2021/04/07 04:19:02;;;;;;;1.20;1.10;;;;;;;2.97;83.11;97835.63;1826599;78;21618;-65
2021/04/07 04:21:30;;;;;;;0.85;0.85;;;;;;;2.92;82.26;97827.70;1826547;78;21064;-65
2021/04/07 04:23:57;;;;;;;0.98;0.98;;;;;;;2.87;82.46;97847.56;1826569;78;21492;-65
2021/04/07 04:26:25;;;;;;;1.15;1.05;;;;;;;2.81;82.58;97840.07;1826566;78;22009;-65
2021/04/07 04:28:53;;;;;;;1.10;1.00;;;;;;;2.76;82.87;97849.25;1826440;78;21595;-65
2021/04/07 04:31:20;;;;;;;1.00;0.90;;;;;;;2.75;82.84;97849.70;1826526;78;21065;-65
2021/04/07 04:33:48;;;;;;;2.30;1.17;;;;;;;2.75;83.08;97852.70;1826495;78;21476;-65
2021/04/07 04:36:15;;;;;;;0.85;0.72;;;;;;;2.76;83.06;97850.09;1826521;78;21571;-66
2021/04/07 04:38:43;;;;;;;1.55;1.10;;;;;;;2.75;82.87;97856.56;1826615;78;22271;-66
2021/04/07 04:41:11;;;;;;;1.35;0.90;;;;;;;2.70;83.18;97869.55;1826450;78;20965;-67
2021/04/07 04:43:38;;;;;;;1.47;1.00;;;;;;;2.70;83.40;97870.00;1826500;78;21140;-67
2021/04/07 04:46:07;;;;;;;1.10;1.00;;;;;;;2.73;83.43;97873.73;1826519;78;21563;-66
2021/04/07 04:48:34;;;;;;;1.25;1.02;;;;;;;2.74;82.99;97874.14;1826567;78;21547;-66
2021/04/07 04:51:03;;;;;;;4.10;3.02;;;;;;;2.74;83.07;97881.84;1826497;78;23515;-66
2021/04/07 04:53:30;;;;;;;3.25;1.80;;;;;;;2.74;83.33;97878.83;1826452;78;21520;-65
2021/04/07 04:55:59;;;;;;;2.92;2.22;;;;;;;2.77;83.62;97877.88;1826433;78;21080;-66
2021/04/07 04:58:26;;;;;;;3.95;2.92;;;;;;;2.78;83.30;97871.86;1826494;78;21545;-66
2021/04/07 05:00:56;;;;;;;3.58;2.08;;;;;;;2.79;83.31;97884.25;1826319;78;21116;-66
2021/04/07 05:03:23;;;;;;;2.37;1.35;;;;;;;2.79;83.62;97895.36;1826447;78;23589;-66
2021/04/07 05:05:51;;;;;;;1.90;1.62;;;;;;;2.82;83.45;97890.53;1826425;78;21086;-65
2021/04/07 05:08:18;;;;;;;1.27;1.17;;;;;;;2.80;83.13;97885.45;1826412;78;21045;-65
2021/04/07 05:10:48;;;;;;;1.10;1.00;;;;;;;2.76;83.16;97894.17;1826473;78;21191;-65
2021/04/07 05:13:15;;;;;;;1.42;1.15;;;;;;;2.68;82.79;97897.00;1826483;78;21143;-65
2021/04/07 05:15:43;;;;;;;1.20;1.10;;;;;;;2.59;82.83;97898.63;1826506;78;21420;-65
2021/04/07 05:18:14;;;;;;;0.90;0.90;;;;;;;2.55;83.28;97894.92;1826727;78;21162;-66
2021/04/07 05:20:42;;;;;;;2.20;1.87;;;;;;;2.53;83.34;97891.13;1827593;78;21168;-66
2021/04/07 05:23:10;;;;;;;3.45;3.00;;;;;;;2.51;83.58;97892.90;1829329;78;21080;-65
2021/04/07 05:25:37;;;;;;;4.45;3.87;;;;;;;2.54;84.03;97889.39;1829735;78;21488;-65
2021/04/07 05:28:08;;;;;;;19.65;14.25;;;;;;;2.57;83.77;97888.01;1829708;78;21180;-66
2021/04/07 05:33:22;;;;;;;4.62;3.47;;;;;;;2.67;83.95;97903.02;1829654;78;21491;-66
2021/04/07 05:35:50;;;;;;;4.15;2.92;;;;;;;2.70;83.79;97901.64;1799745;78;21080;-66
2021/04/07 05:38:20;;;;;;;2.60;2.33;;;;;;;2.72;84.09;97908.84;1827836;77;21472;-66
2021/04/07 05:40:50;;;;;;;2.92;2.37;;;;;;;2.75;83.62;97910.47;1812195;78;21269;-67
2021/04/07 05:43:18;;;;;;;3.08;2.35;;;;;;;2.74;83.50;97901.93;1829114;78;21104;-68
2021/04/07 05:45:46;;;;;;;2.40;1.80;;;;;;;2.73;83.56;97900.25;1829632;78;21575;-66
2021/04/07 05:48:14;;;;;;;1.60;1.50;;;;;;;2.75;83.49;97894.62;1827936;78;21180;-68
2021/04/07 05:50:45;;;;;;;2.85;1.80;;;;;;;2.75;83.16;97904.89;1825922;78;21148;-66
2021/04/07 05:53:19;;;;;;;1.50;1.17;;;;;;;2.74;83.20;97899.36;1826259;78;22312;-66
2021/04/07 05:55:54;;;;;;;1.27;1.17;;;;;;;2.75;82.81;97901.48;1802152;78;21452;-67
2021/04/07 05:58:25;;;;;;;1.05;1.00;;;;;;;2.73;82.32;97892.55;1793304;79;21182;-67
2021/04/07 06:00:53;;;;;;;1.22;1.10;;;;;;;2.67;81.68;97894.04;1793733;79;21614;-67
2021/04/07 06:03:30;;;;;;;1.27;1.17;;;;;;;2.61;82.12;97893.41;1793630;79;21171;-66
2021/04/07 06:06:06;;;;;;;1.42;1.32;;;;;;;2.58;82.52;97893.09;1812735;77;21394;-67
2021/04/07 06:08:34;;;;;;;1.75;1.50;;;;;;;2.65;82.94;97900.11;1828642;78;21147;-66
2021/04/07 06:11:02;;;;;;;1.42;1.20;;;;;;;2.68;82.20;97880.76;1829534;78;21183;-66
2021/04/07 06:13:30;;;;;;;1.50;1.40;;;;;;;2.66;82.30;97886.39;1829521;78;21122;-66
2021/04/07 06:15:58;;;;;;;1.40;1.30;;;;;;;2.65;82.38;97886.00;1829538;78;21472;-67
2021/04/07 06:18:26;;;;;;;2.37;1.37;;;;;;;2.66;82.68;97881.25;1811173;77;22309;-66
2021/04/07 06:20:56;;;;;;;1.70;1.60;;;;;;;2.72;82.94;97880.61;1820554;77;21188;-67
2021/04/07 06:23:24;;;;;;;1.75;1.55;;;;;;;2.85;83.35;97884.01;1818418;78;21535;-67
2021/04/07 06:25:51;;;;;;;1.52;1.42;;;;;;;2.96;83.13;97886.60;1752364;81;21083;-66
2021/04/07 06:28:19;;;;;;;1.80;1.60;;;;;;;3.05;82.14;97889.27;1746270;80;21066;-66
2021/04/07 06:30:47;;;;;;;1.57;1.40;;;;;;;3.09;82.11;97889.55;1745491;80;21607;-66
2021/04/07 06:33:25;;;;;;;4.65;2.00;;;;;;;3.11;81.94;97883.47;1754175;80;21124;-66
2021/04/07 06:35:58;;;;;;;1.32;1.22;;;;;;;3.16;81.68;97892.30;1772142;80;21185;-65
2021/04/07 06:38:26;;;;;;;3.22;2.25;;;;;;;3.18;81.21;97896.09;1747469;80;21143;-65
2021/04/07 06:40:55;;;;;;;2.50;2.20;;;;;;;3.17;81.49;97899.55;1753516;80;21558;-65
2021/04/07 06:43:25;;;;;;;1.65;1.55;;;;;;;3.16;81.22;97898.72;1746523;80;21308;-66
2021/04/07 06:45:53;;;;;;;2.62;2.00;;;;;;;3.15;80.94;97910.33;1758961;80;21613;-66
2021/04/07 06:48:21;;;;;;;2.60;2.20;;;;;;;3.12;81.46;97912.56;1825925;78;21083;-65
2021/04/07 06:50:51;;;;;;;2.12;1.80;;;;;;;3.11;81.50;97909.59;1825981;78;21114;-64
2021/04/07 06:53:25;;;;;;;2.17;2.00;;;;;;;3.09;80.71;97910.09;1759817;81;21503;-66
2021/04/07 06:55:53;;;;;;;1.82;1.72;;;;;;;3.05;81.17;97914.95;1760926;81;21257;-65
2021/04/07 06:58:22;;;;;;;2.50;2.30;;;;;;;3.01;81.06;97909.08;1764159;81;21166;-65
2021/04/07 07:00:50;;;;;;;3.05;2.10;;;;;;;3.01;81.00;97909.52;1753250;81;21500;-66
2021/04/07 07:03:19;;;;;;;1.60;1.47;;;;;;;3.05;81.62;97902.94;1763738;81;21047;-67
2021/04/07 07:05:54;;;;;;;2.02;1.45;;;;;;;3.09;80.64;97912.22;1749459;82;21067;-65
2021/04/07 07:08:23;;;;;;;2.67;1.70;;;;;;;3.06;80.61;97912.33;1752300;81;22077;-65
2021/04/07 07:10:52;;;;;;;1.52;1.42;;;;;;;3.06;81.05;97904.62;1761809;81;21158;-66
2021/04/07 07:13:26;;;;;;;1.50;1.40;;;;;;;3.09;80.66;97895.97;1746727;80;21091;-67
2021/04/07 07:15:54;;;;;;;1.40;1.30;;;;;;;3.07;80.45;97901.61;1733280;81;21522;-65
2021/04/07 07:18:26;;;;;;;1.85;1.50;;;;;;;3.05;80.73;97909.36;1755452;80;21569;-66
2021/04/07 07:20:55;;;;;;;1.42;1.32;;;;;;;3.11;81.37;97914.73;1764872;81;21358;-66
2021/04/07 07:23:30;;;;;;;1.72;1.30;;;;;;;3.17;81.07;97906.81;1765190;81;21575;-68
2021/04/07 07:25:59;;;;;;;1.60;1.50;;;;;;;3.20;81.28;97909.72;1798428;79;21044;-65
2021/04/07 07:28:41;;;;;;;1.20;1.05;;;;;;;3.20;80.95;97912.29;1756821;81;21493;-66
2021/04/07 07:31:29;;;;;;;1.32;1.22;;;;;;;3.20;81.30;97911.01;1765127;81;21197;-67
2021/04/07 07:33:58;;;;;;;1.70;1.60;;;;;;;3.22;81.25;97913.88;1764918;81;21382;-62
2021/04/07 07:36:28;;;;;;;1.85;1.52;;;;;;;3.23;81.67;97905.73;1796007;79;21587;-60
2021/04/07 07:38:59;;;;;;;1.52;1.25;;;;;;;3.24;81.73;97909.53;1795715;79;21148;-62
2021/04/07 07:41:35;;;;;;;1.60;1.15;;;;;;;3.23;80.79;97914.27;1796575;79;21138;-63
2021/04/07 07:44:09;;;;;;;2.35;1.90;;;;;;;3.21;81.23;97912.66;1793819;79;21117;-63
2021/04/07 07:46:39;;;;;;;1.70;1.60;;;;;;;3.20;82.09;97912.29;1773953;79;21431;-65
2021/04/07 07:49:19;;;;;;;1.67;1.55;;;;;;;3.18;81.20;97910.22;1780364;80;21650;-62
2021/04/07 07:51:49;;;;;;;1.60;1.50;;;;;;;3.09;80.56;97917.80;1757088;80;21071;-62
2021/04/07 07:54:24;;;;;;;1.50;1.27;;;;;;;2.97;80.93;97919.54;1783462;80;21531;-62
2021/04/07 07:56:53;;;;;;;2.08;1.67;;;;;;;2.90;81.08;97919.36;1783349;80;21210;-61
2021/04/07 07:59:33;;;;;;;1.60;1.50;;;;;;;2.84;81.40;97921.69;1783298;80;21369;-61
2021/04/07 08:02:01;;;;;;;1.80;1.67;;;;;;;2.76;81.25;97916.00;1783281;80;21071;-62
2021/04/07 08:04:30;;;;;;;1.67;1.50;;;;;;;2.69;81.69;97914.08;1752346;81;21097;-65
2021/04/07 08:07:00;;;;;;;1.57;1.42;;;;;;;2.70;81.97;97903.36;1763846;81;21539;-64
2021/04/07 08:09:30;;;;;;;1.98;1.40;;;;;;;2.67;81.36;97909.88;1762075;81;21192;-62
2021/04/07 08:11:57;;;;;;;1.70;1.60;;;;;;;2.63;81.63;97909.14;1764829;81;21404;-63
2021/04/07 08:14:27;;;;;;;1.62;1.50;;;;;;;2.60;82.55;97913.09;1764984;81;21126;-62
2021/04/07 08:16:54;;;;;;;1.80;1.40;;;;;;;2.61;82.80;97914.77;1796655;79;21142;-63
2021/04/07 08:19:23;;;;;;;1.52;1.42;;;;;;;2.63;82.54;97919.86;1760804;81;21186;-62
2021/04/07 08:21:53;;;;;;;2.10;1.80;;;;;;;2.64;82.39;97915.13;1791114;80;21508;-61
2021/04/07 08:24:22;;;;;;;2.25;1.65;;;;;;;2.65;82.53;97908.65;1791220;80;22212;-64
2021/04/07 08:26:50;;;;;;;1.50;1.40;;;;;;;2.65;82.33;97903.96;1791025;80;21080;-62
2021/04/07 08:29:17;;;;;;;2.33;1.82;;;;;;;2.66;82.61;97939.84;1791090;80;21048;-62
2021/04/07 08:31:48;;;;;;;2.00;1.65;;;;;;;2.66;82.58;97930.03;1791096;79;21148;-63
2021/04/07 08:34:18;;;;;;;2.08;1.87;;;;;;;2.66;82.20;97927.02;1767778;80;21120;-63
2021/04/07 08:36:46;;;;;;;2.98;2.10;;;;;;;2.66;82.80;97918.03;1791091;80;21331;-63
2021/04/07 08:39:17;;;;;;;3.55;1.92;;;;;;;2.69;82.87;97921.78;1791045;79;21524;-62
2021/04/07 08:41:46;;;;;;;2.00;1.80;;;;;;;2.72;83.45;97913.98;1767070;80;21125;-62
2021/04/07 08:44:13;;;;;;;2.22;1.90;;;;;;;2.76;82.64;97926.27;1791117;80;21619;-63
2021/04/07 08:46:53;;;;;;;2.08;1.60;;;;;;;2.76;82.66;97933.52;1791110;80;21492;-63
2021/04/07 08:49:37;;;;;;;3.05;2.00;;;;;;;2.74;81.78;97925.03;1791050;80;21437;-66
2021/04/07 08:52:20;;;;;;;1.70;1.52;;;;;;;2.70;81.42;97916.20;1790876;79;21136;-62
2021/04/07 08:54:50;;;;;;;2.72;2.02;;;;;;;2.66;81.80;97929.58;1791110;80;27386;-61
2021/04/07 08:57:35;;;;;;;4.05;2.60;;;;;;;2.61;81.74;97926.77;1790633;80;21195;-66
2021/04/07 09:00:15;;;;;;;3.00;2.00;;;;;;;2.60;82.57;97918.70;1790847;79;21599;-62
2021/04/07 09:03:10;;;;;;;2.45;2.10;;;;;;;2.62;82.66;97922.03;1774251;79;21315;-62
2021/04/07 09:05:45;;;;;;;2.25;1.82;;;;;;;2.64;82.41;97935.66;1737927;82;21688;-63
2021/04/07 09:08:26;;;;;;;2.60;2.00;;;;;;;2.61;83.38;97936.59;1738125;82;21155;-64
2021/04/07 09:10:56;;;;;;;2.90;2.35;;;;;;;2.61;83.26;97944.73;1738689;82;21595;-61
2021/04/07 09:13:27;;;;;;;2.60;1.98;;;;;;;2.60;83.66;97946.94;1738655;82;21120;-63
2021/04/07 09:16:02;;;;;;;2.12;1.85;;;;;;;2.61;84.00;97939.16;1738003;82;22150;-62
2021/04/07 09:18:39;;;;;;;1.90;1.60;;;;;;;2.65;84.22;97943.75;1716676;82;21103;-62
2021/04/07 09:21:21;;;;;;;2.25;1.98;;;;;;;2.70;84.19;97945.28;1738330;82;21142;-61
2021/04/07 09:23:57;;;;;;;2.05;1.85;;;;;;;2.76;84.14;97944.23;1757661;81;21091;-64
2021/04/07 09:26:31;;;;;;;2.02;1.70;;;;;;;2.81;82.89;97949.19;1742786;82;21594;-61
2021/04/07 09:28:59;;;;;;;2.08;1.87;;;;;;;2.81;83.05;97949.19;1757694;81;21207;-61
2021/04/07 09:31:34;;;;;;;1.90;1.72;;;;;;;2.83;83.41;97952.10;1742678;81;21108;-62
2021/04/07 09:34:03;;;;;;;1.98;1.67;;;;;;;2.90;83.01;97952.73;1757716;81;21224;-62
2021/04/07 09:36:38;;;;;;;2.27;1.87;;;;;;;2.91;82.96;97949.28;1757577;81;21087;-62
2021/04/07 09:39:09;;;;;;;1.72;1.60;;;;;;;2.94;83.25;97943.59;1742763;81;21116;-62
2021/04/07 09:41:40;;;;;;;1.90;1.72;;;;;;;3.00;83.11;97954.91;1757671;81;21588;-60
2021/04/07 09:44:10;;;;;;;2.12;1.90;;;;;;;3.01;83.17;97957.04;1742670;82;21060;-62
2021/04/07 09:46:40;;;;;;;2.42;1.67;;;;;;;3.00;82.61;97960.05;1757533;81;21151;-62
2021/04/07 09:49:17;;;;;;;3.08;2.10;;;;;;;2.97;82.43;97956.33;1757622;81;21155;-61
2021/04/07 09:51:48;;;;;;;1.82;1.72;;;;;;;2.97;82.75;97961.47;1742657;82;21555;-61
2021/04/07 09:54:22;;;;;;;2.85;2.50;;;;;;;2.95;82.80;97963.70;1756632;81;22241;-62
2021/04/07 09:57:08;;;;;;;3.22;2.47;;;;;;;2.97;83.17;97956.33;1742051;82;21295;-62
2021/04/07 09:59:48;;;;;;;2.50;2.02;;;;;;;3.02;82.25;97971.55;1742348;82;21603;-62
2021/04/07 10:02:27;;;;;;;2.08;1.70;;;;;;;2.99;82.24;97970.41;1753989;80;21148;-63
2021/04/07 10:04:57;;;;;;;2.33;2.00;;;;;;;3.02;83.09;97968.98;1759076;80;21588;-64
2021/04/07 10:07:30;;;;;;;2.83;1.98;;;;;;;3.13;82.76;97966.06;1769672;80;21353;-63
2021/04/07 10:10:00;;;;;;;2.50;1.90;;;;;;;3.18;82.88;97962.89;1770361;80;21481;-62
2021/04/07 10:12:30;;;;;;;2.37;1.80;;;;;;;3.20;82.08;97963.67;1770942;81;21495;-61
2021/04/07 10:14:59;;;;;;;2.47;1.98;;;;;;;3.19;82.13;97967.13;1770863;80;21085;-62
2021/04/07 10:17:32;;;;;;;2.87;2.50;;;;;;;3.13;82.09;97969.47;1770876;80;21482;-62
2021/04/07 10:20:13;;;;;;;3.02;2.47;;;;;;;3.09;82.30;97974.31;1770765;80;21460;-61
2021/04/07 10:22:42;;;;;;;2.17;1.98;;;;;;;3.01;81.87;97974.57;1770840;81;21114;-62
2021/04/07 10:25:15;;;;;;;1.70;1.57;;;;;;;3.04;82.82;97984.74;1770929;81;21070;-61
2021/04/07 10:27:44;;;;;;;;;;;;;;;3.06;81.09;97993.68;1744055;81;21180;-62
2021/04/07 10:30:16;;;;;;;4.85;2.40;;;;;;;3.06;81.51;97994.52;1767948;81;20499;-61
2021/04/07 10:32:49;;;;;;;3.72;2.47;;;;;;;3.10;82.19;98000.39;1762247;80;21139;-62
2021/04/07 10:35:23;;;;;;;3.80;3.30;;;;;;;3.15;82.11;98002.36;1740909;81;21154;-62
2021/04/07 10:38:06;;;;;;;3.50;3.20;;;;;;;3.24;82.42;98008.45;1725314;83;21177;-63
2021/04/07 10:40:35;;;;;;;5.08;4.03;;;;;;;3.26;81.64;98014.38;1698007;83;21185;-62
2021/04/07 10:43:11;;;;;;;4.10;2.72;;;;;;;3.26;81.40;98017.39;1758886;81;21143;-61
2021/04/07 10:45:39;;;;;;;3.40;2.80;;;;;;;3.24;80.51;98027.72;1758961;81;22268;-61
2021/04/07 10:48:08;;;;;;;3.95;2.77;;;;;;;3.16;80.11;98028.45;1758655;81;21159;-62
2021/04/07 10:50:39;;;;;;;3.75;2.87;;;;;;;3.05;80.40;98033.09;1758910;80;21509;-64
2021/04/07 10:53:07;;;;;;;3.92;3.52;;;;;;;2.99;80.98;98034.17;1780156;80;21170;-64
2021/04/07 10:55:35;;;;;;;7.80;3.72;;;;;;;3.00;81.25;98036.27;1751682;80;21562;-63
2021/04/07 10:58:03;;;;;;;4.97;4.08;;;;;;;2.98;81.01;98040.20;1748799;82;21205;-62
2021/04/07 11:00:37;;;;;;;4.55;3.77;;;;;;;2.94;80.68;98045.03;1752801;81;21096;-62
2021/04/07 11:03:06;;;;;;;4.50;3.70;;;;;;;2.94;81.00;98045.48;1748890;82;21089;-63
2021/04/07 11:05:43;;;;;;;3.42;3.12;;;;;;;2.96;81.53;98044.55;1742005;81;21166;-62
2021/04/07 11:08:13;;;;;;;4.17;3.25;;;;;;;2.95;81.38;98050.56;1732562;82;21610;-62
2021/04/07 11:10:48;;;;;;;3.55;2.87;;;;;;;2.93;81.00;98055.36;1704100;82;21518;-62
2021/04/07 11:13:18;;;;;;;4.22;3.42;;;;;;;2.87;80.90;98060.24;1732114;82;21111;-61
2021/04/07 11:15:48;;;;;;;5.85;3.85;;;;;;;2.85;81.11;98064.59;1732521;82;21119;-63
2021/04/07 11:18:16;;;;;;;7.25;5.05;;;;;;;2.80;81.50;98057.47;1732478;82;21134;-62
2021/04/07 11:20:45;;;;;;;6.80;5.42;;;;;;;2.78;81.92;98063.13;1681253;82;21620;-63
2021/04/07 11:23:15;;;;;;;5.22;4.00;;;;;;;2.77;82.12;98074.28;1732521;82;21208;-62
2021/04/07 11:25:44;;;;;;;5.37;4.75;;;;;;;2.70;81.77;98072.80;1732307;82;21174;-61
2021/04/07 11:28:20;;;;;;;4.55;3.62;;;;;;;2.63;82.37;98076.44;1732485;82;21102;-61
2021/04/07 11:37:04;;;;;;;3.87;3.47;;;;;;;2.61;82.69;98085.47;1888442;76;22908;-62
2021/04/07 11:38:51;;;;;;;5.33;3.52;;;;;;;2.62;83.13;98081.17;1808929;77;21111;-62
2021/04/07 11:46:28;;;;;;;4.53;3.45;;;;;;;2.76;82.73;98088.85;1849706;77;21076;-64
2021/04/07 11:48:57;;;;;;;3.80;3.27;;;;;;;2.78;82.11;98082.38;1849735;77;21043;-64
2021/04/07 11:51:25;;;;;;;4.35;3.37;;;;;;;2.79;82.29;98087.08;1849785;77;20924;-64
2021/04/07 11:53:52;;;;;;;4.03;3.45;;;;;;;2.80;81.97;98078.48;1849672;77;21424;-65
2021/04/07 11:56:20;;;;;;;3.67;3.22;;;;;;;2.80;82.30;98078.02;1849489;77;21209;-66
2021/04/07 11:58:48;;;;;;;3.77;3.47;;;;;;;2.84;82.05;98090.31;1849576;77;21170;-63
2021/04/07 12:01:16;;;;;;;6.55;5.03;;;;;;;2.84;82.05;98090.31;1849704;77;21228;-65
2021/04/07 12:03:44;;;;;;;6.97;5.25;;;;;;;2.82;82.25;98096.78;1819440;77;21063;-65
2021/04/07 12:06:12;;;;;;;6.85;4.50;;;;;;;2.82;82.07;98098.50;1849496;77;21200;-62
2021/04/07 12:08:41;;;;;;;4.58;3.62;;;;;;;2.79;81.99;98099.91;1848422;77;21183;-64
2021/04/07 12:11:11;;;;;;;4.40;4.00;;;;;;;2.74;81.84;98104.74;1819479;77;21126;-63
2021/04/07 12:13:42;;;;;;;4.20;3.62;;;;;;;2.72;81.78;98105.23;1820660;77;21186;-64